sensor_id;sensor_type;location;lat;lon;timestamp;P1;durP1;ratioP1;P2;durP2;ratioP2
33690;SDS011;20026;50.058;18.428;2023-11-21T00:01:13;115.80;;;62.10;;
33690;SDS011;20026;50.058;18.428;2023-11-21T00:04:04;121.53;;;68.97;;
33690;SDS011;20026;50.058;18.428;2023-11-21T00:06:32;143.98;;;82.65;;
33690;SDS011;20026;50.058;18.428;2023-11-21T00:08:59;136.82;;;78.88;;
33690;SDS011;20026;50.058;18.428;2023-11-21T00:11:25;97.82;;;55.90;;
33690;SDS011;20026;50.058;18.428;2023-11-21T00:13:51;87.93;;;49.83;;
33690;SDS011;20026;50.058;18.428;2023-11-21T00:16:17;92.22;;;50.95;;
33690;SDS011;20026;50.058;18.428;2023-11-21T00:18:43;87.82;;;51.90;;
33690;SDS011;20026;50.058;18.428;2023-11-21T00:21:11;112.75;;;59.85;;
33690;SDS011;20026;50.058;18.428;2023-11-21T00:23:37;112.20;;;66.93;;
33690;SDS011;20026;50.058;18.428;2023-11-21T00:26:03;105.57;;;61.25;;
33690;SDS011;20026;50.058;18.428;2023-11-21T00:28:29;109.45;;;63.70;;
33690;SDS011;20026;50.058;18.428;2023-11-21T00:30:56;88.65;;;53.15;;
33690;SDS011;20026;50.058;18.428;2023-11-21T00:33:22;87.57;;;55.63;;
33690;SDS011;20026;50.058;18.428;2023-11-21T00:35:48;70.93;;;42.70;;
33690;SDS011;20026;50.058;18.428;2023-11-21T00:38:14;73.50;;;42.50;;
33690;SDS011;20026;50.058;18.428;2023-11-21T00:40:40;68.10;;;41.55;;
33690;SDS011;20026;50.058;18.428;2023-11-21T00:43:06;71.38;;;40.78;;
33690;SDS011;20026;50.058;18.428;2023-11-21T00:45:32;64.40;;;38.00;;
33690;SDS011;20026;50.058;18.428;2023-11-21T00:47:58;75.25;;;46.10;;
33690;SDS011;20026;50.058;18.428;2023-11-21T00:50:24;65.22;;;40.65;;
33690;SDS011;20026;50.058;18.428;2023-11-21T00:52:50;61.78;;;40.72;;
33690;SDS011;20026;50.058;18.428;2023-11-21T00:55:16;62.78;;;39.53;;
33690;SDS011;20026;50.058;18.428;2023-11-21T08:52:17;266.35;;;105.90;;
33690;SDS011;20026;50.058;18.428;2023-11-21T08:54:43;178.60;;;82.35;;
33690;SDS011;20026;50.058;18.428;2023-11-21T08:57:10;174.45;;;75.68;;
33690;SDS011;20026;50.058;18.428;2023-11-21T08:59:36;155.23;;;62.63;;
33690;SDS011;20026;50.058;18.428;2023-11-21T09:02:02;203.38;;;82.82;;
33690;SDS011;20026;50.058;18.428;2023-11-21T09:04:28;199.43;;;80.88;;
33690;SDS011;20026;50.058;18.428;2023-11-21T09:06:54;136.68;;;62.70;;
33690;SDS011;20026;50.058;18.428;2023-11-21T09:09:20;77.72;;;40.13;;
33690;SDS011;20026;50.058;18.428;2023-11-21T09:11:46;127.82;;;51.63;;
33690;SDS011;20026;50.058;18.428;2023-11-21T09:14:14;157.13;;;60.17;;
33690;SDS011;20026;50.058;18.428;2023-11-21T09:16:41;175.85;;;66.60;;
33690;SDS011;20026;50.058;18.428;2023-11-21T09:19:08;144.50;;;62.38;;
33690;SDS011;20026;50.058;18.428;2023-11-21T09:21:34;97.78;;;49.50;;
33690;SDS011;20026;50.058;18.428;2023-11-21T09:24:00;100.75;;;47.85;;
33690;SDS011;20026;50.058;18.428;2023-11-21T09:26:27;101.65;;;55.60;;
33690;SDS011;20026;50.058;18.428;2023-11-21T09:28:55;117.90;;;55.53;;
33690;SDS011;20026;50.058;18.428;2023-11-21T09:31:21;104.45;;;50.15;;
33690;SDS011;20026;50.058;18.428;2023-11-21T09:33:48;87.97;;;41.92;;
33690;SDS011;20026;50.058;18.428;2023-11-21T09:36:15;105.40;;;48.83;;
33690;SDS011;20026;50.058;18.428;2023-11-21T09:38:41;99.95;;;46.50;;
33690;SDS011;20026;50.058;18.428;2023-11-21T09:41:11;39.22;;;23.20;;
33690;SDS011;20026;50.058;18.428;2023-11-21T09:43:42;29.70;;;16.73;;
33690;SDS011;20026;50.058;18.428;2023-11-21T09:46:10;20.90;;;11.82;;
33690;SDS011;20026;50.058;18.428;2023-11-21T09:48:38;17.88;;;8.48;;
33690;SDS011;20026;50.058;18.428;2023-11-21T09:51:06;15.60;;;10.10;;
33690;SDS011;20026;50.058;18.428;2023-11-21T09:53:33;31.52;;;15.88;;
33690;SDS011;20026;50.058;18.428;2023-11-21T09:56:00;27.80;;;14.07;;
33690;SDS011;20026;50.058;18.428;2023-11-21T09:58:27;14.68;;;8.90;;
33690;SDS011;20026;50.058;18.428;2023-11-21T10:00:54;19.60;;;10.30;;
33690;SDS011;20026;50.058;18.428;2023-11-21T10:03:21;12.57;;;8.05;;
33690;SDS011;20026;50.058;18.428;2023-11-21T10:05:48;16.20;;;8.40;;
33690;SDS011;20026;50.058;18.428;2023-11-21T10:08:16;13.20;;;7.88;;
33690;SDS011;20026;50.058;18.428;2023-11-21T10:10:43;18.25;;;9.95;;
33690;SDS011;20026;50.058;18.428;2023-11-21T10:13:13;12.52;;;6.05;;
33690;SDS011;20026;50.058;18.428;2023-11-21T10:15:41;10.20;;;5.93;;
33690;SDS011;20026;50.058;18.428;2023-11-21T10:18:13;16.75;;;7.35;;
33690;SDS011;20026;50.058;18.428;2023-11-21T10:20:40;14.68;;;7.55;;
33690;SDS011;20026;50.058;18.428;2023-11-21T10:23:08;18.77;;;8.75;;
33690;SDS011;20026;50.058;18.428;2023-11-21T10:25:36;15.65;;;7.57;;
33690;SDS011;20026;50.058;18.428;2023-11-21T10:28:03;19.80;;;8.00;;
33690;SDS011;20026;50.058;18.428;2023-11-21T10:30:35;16.20;;;7.32;;
33690;SDS011;20026;50.058;18.428;2023-11-21T10:33:02;17.90;;;8.23;;
33690;SDS011;20026;50.058;18.428;2023-11-21T10:35:38;20.85;;;9.10;;
33690;SDS011;20026;50.058;18.428;2023-11-21T10:38:05;23.63;;;10.25;;
33690;SDS011;20026;50.058;18.428;2023-11-21T10:40:33;14.93;;;9.27;;
33690;SDS011;20026;50.058;18.428;2023-11-21T10:43:06;22.52;;;10.65;;
33690;SDS011;20026;50.058;18.428;2023-11-21T10:45:33;17.70;;;9.38;;
33690;SDS011;20026;50.058;18.428;2023-11-21T10:47:59;16.35;;;7.70;;
33690;SDS011;20026;50.058;18.428;2023-11-21T10:50:26;22.00;;;10.77;;
33690;SDS011;20026;50.058;18.428;2023-11-21T10:52:52;30.13;;;13.70;;
33690;SDS011;20026;50.058;18.428;2023-11-21T10:55:18;26.30;;;13.10;;
33690;SDS011;20026;50.058;18.428;2023-11-21T10:57:51;17.02;;;9.25;;
33690;SDS011;20026;50.058;18.428;2023-11-21T11:00:19;55.67;;;23.70;;
33690;SDS011;20026;50.058;18.428;2023-11-21T11:02:47;56.50;;;23.10;;
33690;SDS011;20026;50.058;18.428;2023-11-21T11:05:14;26.55;;;12.25;;
33690;SDS011;20026;50.058;18.428;2023-11-21T11:07:41;55.83;;;23.10;;
33690;SDS011;20026;50.058;18.428;2023-11-21T11:10:08;20.67;;;10.00;;
33690;SDS011;20026;50.058;18.428;2023-11-21T11:12:39;81.65;;;30.13;;
33690;SDS011;20026;50.058;18.428;2023-11-21T11:15:05;42.85;;;17.52;;
33690;SDS011;20026;50.058;18.428;2023-11-21T11:17:34;12.55;;;7.35;;
33690;SDS011;20026;50.058;18.428;2023-11-21T11:20:00;10.15;;;6.13;;
33690;SDS011;20026;50.058;18.428;2023-11-21T11:23:11;14.73;;;6.82;;
33690;SDS011;20026;50.058;18.428;2023-11-21T11:27:52;29.60;;;16.00;;
33690;SDS011;20026;50.058;18.428;2023-11-21T11:33:12;22.00;;;12.38;;
33690;SDS011;20026;50.058;18.428;2023-11-21T11:35:52;20.25;;;11.65;;
33690;SDS011;20026;50.058;18.428;2023-11-21T11:38:21;70.90;;;31.42;;
33690;SDS011;20026;50.058;18.428;2023-11-21T11:40:48;56.75;;;24.80;;
33690;SDS011;20026;50.058;18.428;2023-11-21T11:43:24;60.40;;;27.58;;
33690;SDS011;20026;50.058;18.428;2023-11-21T11:45:50;46.40;;;21.38;;
33690;SDS011;20026;50.058;18.428;2023-11-21T11:48:18;87.22;;;36.03;;
33690;SDS011;20026;50.058;18.428;2023-11-21T11:51:03;34.60;;;17.65;;
33690;SDS011;20026;50.058;18.428;2023-11-21T11:53:33;14.30;;;7.60;;
33690;SDS011;20026;50.058;18.428;2023-11-21T11:58:43;13.32;;;7.80;;
33690;SDS011;20026;50.058;18.428;2023-11-21T12:01:10;37.25;;;19.27;;
33690;SDS011;20026;50.058;18.428;2023-11-21T12:03:37;36.45;;;19.58;;
33690;SDS011;20026;50.058;18.428;2023-11-21T12:06:04;40.05;;;20.20;;
33690;SDS011;20026;50.058;18.428;2023-11-21T12:08:31;26.00;;;15.32;;
33690;SDS011;20026;50.058;18.428;2023-11-21T12:10:58;36.80;;;19.10;;
33690;SDS011;20026;50.058;18.428;2023-11-21T12:13:24;36.53;;;21.02;;
33690;SDS011;20026;50.058;18.428;2023-11-21T12:15:50;30.85;;;17.90;;
33690;SDS011;20026;50.058;18.428;2023-11-21T12:18:16;34.60;;;18.80;;
33690;SDS011;20026;50.058;18.428;2023-11-21T12:20:42;38.95;;;20.75;;
33690;SDS011;20026;50.058;18.428;2023-11-21T12:23:12;33.42;;;16.67;;
33690;SDS011;20026;50.058;18.428;2023-11-21T12:25:40;29.00;;;16.55;;
33690;SDS011;20026;50.058;18.428;2023-11-21T12:28:07;21.00;;;12.90;;
33690;SDS011;20026;50.058;18.428;2023-11-21T12:30:36;22.77;;;12.57;;
33690;SDS011;20026;50.058;18.428;2023-11-21T12:33:03;28.45;;;16.30;;
33690;SDS011;20026;50.058;18.428;2023-11-21T12:35:32;28.85;;;16.58;;
33690;SDS011;20026;50.058;18.428;2023-11-21T12:38:01;34.85;;;19.60;;
33690;SDS011;20026;50.058;18.428;2023-11-21T12:40:28;32.97;;;19.75;;
33690;SDS011;20026;50.058;18.428;2023-11-21T12:42:55;36.20;;;22.45;;
33690;SDS011;20026;50.058;18.428;2023-11-21T12:45:22;29.75;;;16.70;;
33690;SDS011;20026;50.058;18.428;2023-11-21T12:47:51;30.63;;;15.40;;
33690;SDS011;20026;50.058;18.428;2023-11-21T12:50:24;26.55;;;16.67;;
33690;SDS011;20026;50.058;18.428;2023-11-21T12:52:54;31.05;;;17.50;;
33690;SDS011;20026;50.058;18.428;2023-11-21T12:55:20;25.05;;;13.77;;
33690;SDS011;20026;50.058;18.428;2023-11-21T12:57:50;27.48;;;17.50;;
33690;SDS011;20026;50.058;18.428;2023-11-21T13:02:55;24.27;;;16.00;;
33690;SDS011;20026;50.058;18.428;2023-11-21T13:05:32;53.17;;;25.88;;
33690;SDS011;20026;50.058;18.428;2023-11-21T13:07:59;34.03;;;21.17;;
33690;SDS011;20026;50.058;18.428;2023-11-21T13:10:27;46.05;;;28.60;;
33690;SDS011;20026;50.058;18.428;2023-11-21T13:12:58;36.03;;;23.10;;
33690;SDS011;20026;50.058;18.428;2023-11-21T13:15:25;30.85;;;22.17;;
33690;SDS011;20026;50.058;18.428;2023-11-21T13:17:52;45.65;;;29.73;;
33690;SDS011;20026;50.058;18.428;2023-11-21T13:20:19;48.47;;;30.60;;
33690;SDS011;20026;50.058;18.428;2023-11-21T13:23:07;53.03;;;35.67;;
33690;SDS011;20026;50.058;18.428;2023-11-21T13:25:33;41.30;;;25.63;;
33690;SDS011;20026;50.058;18.428;2023-11-21T13:27:59;54.30;;;35.80;;
33690;SDS011;20026;50.058;18.428;2023-11-21T13:30:26;80.22;;;60.65;;
33690;SDS011;20026;50.058;18.428;2023-11-21T13:32:58;79.10;;;54.85;;
33690;SDS011;20026;50.058;18.428;2023-11-21T13:35:27;47.45;;;33.65;;
33690;SDS011;20026;50.058;18.428;2023-11-21T13:38:09;72.80;;;37.75;;
33690;SDS011;20026;50.058;18.428;2023-11-21T13:40:36;106.72;;;46.42;;
33690;SDS011;20026;50.058;18.428;2023-11-21T13:43:12;91.13;;;41.33;;
33690;SDS011;20026;50.058;18.428;2023-11-21T13:45:38;229.15;;;92.57;;
33690;SDS011;20026;50.058;18.428;2023-11-21T13:48:05;257.00;;;101.80;;
33690;SDS011;20026;50.058;18.428;2023-11-21T13:50:38;158.75;;;69.10;;
33690;SDS011;20026;50.058;18.428;2023-11-21T13:53:09;84.47;;;45.63;;
33690;SDS011;20026;50.058;18.428;2023-11-21T13:55:43;133.63;;;63.65;;
33690;SDS011;20026;50.058;18.428;2023-11-21T13:58:10;230.15;;;105.82;;
33690;SDS011;20026;50.058;18.428;2023-11-21T14:00:43;89.20;;;48.50;;
33690;SDS011;20026;50.058;18.428;2023-11-21T14:03:14;131.93;;;70.38;;
33690;SDS011;20026;50.058;18.428;2023-11-21T14:05:45;228.88;;;115.72;;
33690;SDS011;20026;50.058;18.428;2023-11-21T14:08:14;123.25;;;65.30;;
33690;SDS011;20026;50.058;18.428;2023-11-21T14:10:45;148.13;;;76.93;;
33690;SDS011;20026;50.058;18.428;2023-11-21T14:13:14;106.82;;;57.10;;
33690;SDS011;20026;50.058;18.428;2023-11-21T14:15:41;71.47;;;44.28;;
33690;SDS011;20026;50.058;18.428;2023-11-21T14:18:10;60.05;;;36.38;;
33690;SDS011;20026;50.058;18.428;2023-11-21T14:20:39;133.35;;;64.35;;
33690;SDS011;20026;50.058;18.428;2023-11-21T14:23:06;92.90;;;52.20;;
33690;SDS011;20026;50.058;18.428;2023-11-21T14:25:35;61.97;;;35.78;;
33690;SDS011;20026;50.058;18.428;2023-11-21T14:28:02;93.63;;;49.97;;
33690;SDS011;20026;50.058;18.428;2023-11-21T14:30:29;110.13;;;45.63;;
33690;SDS011;20026;50.058;18.428;2023-11-21T14:32:57;94.40;;;55.85;;
33690;SDS011;20026;50.058;18.428;2023-11-21T14:35:23;67.97;;;43.55;;
33690;SDS011;20026;50.058;18.428;2023-11-21T14:37:50;97.28;;;59.53;;
33690;SDS011;20026;50.058;18.428;2023-11-21T14:40:16;88.65;;;54.63;;
33690;SDS011;20026;50.058;18.428;2023-11-21T14:42:46;63.88;;;42.63;;
33690;SDS011;20026;50.058;18.428;2023-11-21T14:45:12;93.47;;;54.20;;
33690;SDS011;20026;50.058;18.428;2023-11-21T14:47:44;158.77;;;79.13;;
33690;SDS011;20026;50.058;18.428;2023-11-21T14:50:19;150.77;;;92.63;;
33690;SDS011;20026;50.058;18.428;2023-11-21T14:53:05;39.60;;;27.15;;
33690;SDS011;20026;50.058;18.428;2023-11-21T14:55:32;60.35;;;40.38;;
33690;SDS011;20026;50.058;18.428;2023-11-21T14:58:08;44.63;;;28.77;;
33690;SDS011;20026;50.058;18.428;2023-11-21T15:00:38;55.03;;;38.40;;
33690;SDS011;20026;50.058;18.428;2023-11-21T15:03:10;39.40;;;25.13;;
33690;SDS011;20026;50.058;18.428;2023-11-21T15:05:51;49.60;;;32.92;;
33690;SDS011;20026;50.058;18.428;2023-11-21T15:08:18;66.90;;;46.55;;
33690;SDS011;20026;50.058;18.428;2023-11-21T15:10:51;599.80;;;179.25;;
33690;SDS011;20026;50.058;18.428;2023-11-21T15:13:20;65.00;;;42.92;;
33690;SDS011;20026;50.058;18.428;2023-11-21T15:15:48;49.67;;;35.25;;
33690;SDS011;20026;50.058;18.428;2023-11-21T15:18:14;54.45;;;32.95;;
33690;SDS011;20026;50.058;18.428;2023-11-21T15:20:40;63.38;;;39.17;;
33690;SDS011;20026;50.058;18.428;2023-11-21T15:23:07;62.35;;;37.60;;
33690;SDS011;20026;50.058;18.428;2023-11-21T15:25:33;53.85;;;30.25;;
33690;SDS011;20026;50.058;18.428;2023-11-21T15:28:01;43.88;;;24.52;;
33690;SDS011;20026;50.058;18.428;2023-11-21T15:30:27;37.65;;;22.90;;
33690;SDS011;20026;50.058;18.428;2023-11-21T15:32:56;50.30;;;29.67;;
33690;SDS011;20026;50.058;18.428;2023-11-21T15:35:22;48.47;;;28.05;;
33690;SDS011;20026;50.058;18.428;2023-11-21T15:37:48;49.25;;;27.30;;
33690;SDS011;20026;50.058;18.428;2023-11-21T15:40:16;43.33;;;25.27;;
33690;SDS011;20026;50.058;18.428;2023-11-21T15:42:42;43.00;;;25.52;;
33690;SDS011;20026;50.058;18.428;2023-11-21T15:45:10;36.47;;;22.48;;
33690;SDS011;20026;50.058;18.428;2023-11-21T15:47:36;52.00;;;33.03;;
33690;SDS011;20026;50.058;18.428;2023-11-21T15:50:02;60.63;;;33.70;;
33690;SDS011;20026;50.058;18.428;2023-11-21T15:52:33;51.03;;;31.50;;
33690;SDS011;20026;50.058;18.428;2023-11-21T15:54:59;48.83;;;30.65;;
33690;SDS011;20026;50.058;18.428;2023-11-21T15:57:25;55.80;;;33.13;;
33690;SDS011;20026;50.058;18.428;2023-11-21T15:59:52;45.40;;;31.23;;
33690;SDS011;20026;50.058;18.428;2023-11-21T16:02:18;42.65;;;25.73;;
33690;SDS011;20026;50.058;18.428;2023-11-21T16:04:44;37.40;;;24.60;;
33690;SDS011;20026;50.058;18.428;2023-11-21T16:07:10;39.60;;;25.73;;
33690;SDS011;20026;50.058;18.428;2023-11-21T16:09:36;40.10;;;26.55;;
33690;SDS011;20026;50.058;18.428;2023-11-21T16:12:04;42.47;;;26.70;;
33690;SDS011;20026;50.058;18.428;2023-11-21T16:14:32;66.57;;;33.72;;
33690;SDS011;20026;50.058;18.428;2023-11-21T16:17:09;107.80;;;52.10;;
33690;SDS011;20026;50.058;18.428;2023-11-21T16:19:35;132.48;;;75.10;;
33690;SDS011;20026;50.058;18.428;2023-11-21T16:22:01;96.22;;;57.78;;
33690;SDS011;20026;50.058;18.428;2023-11-21T16:24:27;180.05;;;102.38;;
33690;SDS011;20026;50.058;18.428;2023-11-21T16:26:55;115.97;;;72.93;;
33690;SDS011;20026;50.058;18.428;2023-11-21T16:29:21;106.47;;;64.88;;
33690;SDS011;20026;50.058;18.428;2023-11-21T16:31:47;86.70;;;52.17;;
33690;SDS011;20026;50.058;18.428;2023-11-21T16:34:18;70.82;;;39.97;;
33690;SDS011;20026;50.058;18.428;2023-11-21T16:36:44;99.22;;;47.17;;
33690;SDS011;20026;50.058;18.428;2023-11-21T16:39:11;98.95;;;47.42;;
33690;SDS011;20026;50.058;18.428;2023-11-21T16:41:41;93.75;;;44.13;;
33690;SDS011;20026;50.058;18.428;2023-11-21T16:44:40;111.88;;;54.92;;
33690;SDS011;20026;50.058;18.428;2023-11-21T16:47:00;112.80;;;49.08;;
33690;SDS011;20026;50.058;18.428;2023-11-21T16:49:30;98.63;;;44.15;;
33690;SDS011;20026;50.058;18.428;2023-11-21T16:51:58;96.90;;;41.83;;
33690;SDS011;20026;50.058;18.428;2023-11-21T16:54:25;107.93;;;45.13;;
33690;SDS011;20026;50.058;18.428;2023-11-21T16:56:52;119.93;;;51.42;;
33690;SDS011;20026;50.058;18.428;2023-11-21T16:59:18;137.65;;;57.70;;
33690;SDS011;20026;50.058;18.428;2023-11-21T17:01:45;159.57;;;66.40;;
33690;SDS011;20026;50.058;18.428;2023-11-21T17:04:12;168.57;;;71.05;;
33690;SDS011;20026;50.058;18.428;2023-11-21T17:06:40;148.07;;;60.85;;
33690;SDS011;20026;50.058;18.428;2023-11-21T17:09:06;222.32;;;89.25;;
33690;SDS011;20026;50.058;18.428;2023-11-21T17:11:38;159.15;;;66.20;;
33690;SDS011;20026;50.058;18.428;2023-11-21T17:14:06;122.25;;;52.95;;
33690;SDS011;20026;50.058;18.428;2023-11-21T17:16:32;124.88;;;60.45;;
33690;SDS011;20026;50.058;18.428;2023-11-21T17:18:58;145.75;;;64.45;;
33690;SDS011;20026;50.058;18.428;2023-11-21T17:21:24;117.10;;;53.70;;
33690;SDS011;20026;50.058;18.428;2023-11-21T17:23:52;96.47;;;45.00;;
33690;SDS011;20026;50.058;18.428;2023-11-21T17:26:18;93.15;;;45.60;;
33690;SDS011;20026;50.058;18.428;2023-11-21T17:28:44;118.03;;;53.83;;
33690;SDS011;20026;50.058;18.428;2023-11-21T17:31:10;98.75;;;47.97;;
33690;SDS011;20026;50.058;18.428;2023-11-21T17:33:36;91.28;;;44.13;;
33690;SDS011;20026;50.058;18.428;2023-11-21T17:36:03;90.53;;;46.30;;
33690;SDS011;20026;50.058;18.428;2023-11-21T17:38:30;85.85;;;43.15;;
33690;SDS011;20026;50.058;18.428;2023-11-21T17:40:57;94.03;;;42.10;;
33690;SDS011;20026;50.058;18.428;2023-11-21T17:43:23;116.97;;;45.17;;
33690;SDS011;20026;50.058;18.428;2023-11-21T17:45:49;115.53;;;40.25;;
33690;SDS011;20026;50.058;18.428;2023-11-21T17:48:16;140.43;;;39.03;;
33690;SDS011;20026;50.058;18.428;2023-11-21T17:50:42;160.13;;;42.90;;
33690;SDS011;20026;50.058;18.428;2023-11-21T17:53:08;186.13;;;49.50;;
33690;SDS011;20026;50.058;18.428;2023-11-21T17:55:34;140.75;;;41.78;;
33690;SDS011;20026;50.058;18.428;2023-11-21T17:58:00;119.65;;;41.38;;
33690;SDS011;20026;50.058;18.428;2023-11-21T18:00:26;131.50;;;42.55;;
33690;SDS011;20026;50.058;18.428;2023-11-21T18:02:53;159.63;;;42.53;;
33690;SDS011;20026;50.058;18.428;2023-11-21T18:05:19;163.32;;;44.25;;
33690;SDS011;20026;50.058;18.428;2023-11-21T18:07:47;148.93;;;49.00;;
33690;SDS011;20026;50.058;18.428;2023-11-21T18:10:14;95.43;;;41.45;;
33690;SDS011;20026;50.058;18.428;2023-11-21T18:12:40;101.07;;;41.10;;
33690;SDS011;20026;50.058;18.428;2023-11-21T18:15:07;100.57;;;42.03;;
33690;SDS011;20026;50.058;18.428;2023-11-21T18:17:34;109.90;;;42.53;;
33690;SDS011;20026;50.058;18.428;2023-11-21T18:20:00;93.38;;;35.72;;
33690;SDS011;20026;50.058;18.428;2023-11-21T18:22:26;90.70;;;35.85;;
33690;SDS011;20026;50.058;18.428;2023-11-21T18:24:52;91.00;;;38.28;;
33690;SDS011;20026;50.058;18.428;2023-11-21T18:27:19;93.13;;;40.20;;
33690;SDS011;20026;50.058;18.428;2023-11-21T18:29:46;80.45;;;33.60;;
33690;SDS011;20026;50.058;18.428;2023-11-21T18:32:13;83.40;;;33.53;;
33690;SDS011;20026;50.058;18.428;2023-11-21T18:34:42;83.20;;;37.78;;
33690;SDS011;20026;50.058;18.428;2023-11-21T18:37:10;66.40;;;32.63;;
33690;SDS011;20026;50.058;18.428;2023-11-21T18:39:36;66.85;;;31.17;;
33690;SDS011;20026;50.058;18.428;2023-11-21T18:42:03;56.22;;;27.38;;
33690;SDS011;20026;50.058;18.428;2023-11-21T18:44:29;45.38;;;22.90;;
33690;SDS011;20026;50.058;18.428;2023-11-21T18:46:55;46.90;;;23.42;;
33690;SDS011;20026;50.058;18.428;2023-11-21T18:49:21;47.05;;;23.60;;
33690;SDS011;20026;50.058;18.428;2023-11-21T18:51:47;37.15;;;17.55;;
33690;SDS011;20026;50.058;18.428;2023-11-21T18:54:13;37.55;;;17.30;;
33690;SDS011;20026;50.058;18.428;2023-11-21T18:56:40;32.45;;;17.35;;
33690;SDS011;20026;50.058;18.428;2023-11-21T18:59:08;29.77;;;16.33;;
33690;SDS011;20026;50.058;18.428;2023-11-21T19:01:35;34.88;;;18.80;;
33690;SDS011;20026;50.058;18.428;2023-11-21T19:04:01;31.13;;;18.05;;
33690;SDS011;20026;50.058;18.428;2023-11-21T19:06:27;28.27;;;16.65;;
33690;SDS011;20026;50.058;18.428;2023-11-21T19:08:54;33.28;;;18.67;;
33690;SDS011;20026;50.058;18.428;2023-11-21T19:11:20;40.55;;;22.38;;
33690;SDS011;20026;50.058;18.428;2023-11-21T19:13:50;44.40;;;22.70;;
33690;SDS011;20026;50.058;18.428;2023-11-21T19:16:17;33.10;;;19.40;;
33690;SDS011;20026;50.058;18.428;2023-11-21T19:18:43;27.98;;;16.30;;
33690;SDS011;20026;50.058;18.428;2023-11-21T19:21:13;31.52;;;17.98;;
33690;SDS011;20026;50.058;18.428;2023-11-21T19:23:40;31.65;;;17.23;;
33690;SDS011;20026;50.058;18.428;2023-11-21T19:26:06;45.42;;;21.52;;
33690;SDS011;20026;50.058;18.428;2023-11-21T19:28:32;31.15;;;16.05;;
33690;SDS011;20026;50.058;18.428;2023-11-21T19:30:59;33.67;;;15.93;;
33690;SDS011;20026;50.058;18.428;2023-11-21T19:33:26;46.25;;;21.33;;
33690;SDS011;20026;50.058;18.428;2023-11-21T19:35:53;45.03;;;19.30;;
33690;SDS011;20026;50.058;18.428;2023-11-21T19:38:19;49.10;;;20.35;;
33690;SDS011;20026;50.058;18.428;2023-11-21T19:40:45;57.25;;;23.40;;
33690;SDS011;20026;50.058;18.428;2023-11-21T19:43:13;41.80;;;22.13;;
33690;SDS011;20026;50.058;18.428;2023-11-21T19:45:39;43.05;;;21.50;;
33690;SDS011;20026;50.058;18.428;2023-11-21T19:48:05;48.15;;;25.17;;
33690;SDS011;20026;50.058;18.428;2023-11-21T19:50:33;31.15;;;18.63;;
33690;SDS011;20026;50.058;18.428;2023-11-21T19:52:59;46.72;;;24.67;;
33690;SDS011;20026;50.058;18.428;2023-11-21T19:55:26;32.53;;;19.30;;
33690;SDS011;20026;50.058;18.428;2023-11-21T19:57:52;37.05;;;20.13;;
33690;SDS011;20026;50.058;18.428;2023-11-21T20:00:18;52.13;;;29.42;;
33690;SDS011;20026;50.058;18.428;2023-11-21T20:02:44;22.55;;;12.90;;
33690;SDS011;20026;50.058;18.428;2023-11-21T20:05:10;16.88;;;10.68;;
33690;SDS011;20026;50.058;18.428;2023-11-21T20:07:40;19.98;;;12.48;;
33690;SDS011;20026;50.058;18.428;2023-11-21T20:10:07;20.40;;;12.45;;
33690;SDS011;20026;50.058;18.428;2023-11-21T20:12:33;17.63;;;11.60;;
33690;SDS011;20026;50.058;18.428;2023-11-21T20:14:59;18.42;;;11.20;;
33690;SDS011;20026;50.058;18.428;2023-11-21T20:17:25;20.52;;;12.15;;
33690;SDS011;20026;50.058;18.428;2023-11-21T20:19:52;25.83;;;16.25;;
33690;SDS011;20026;50.058;18.428;2023-11-21T20:22:19;24.13;;;13.82;;
33690;SDS011;20026;50.058;18.428;2023-11-21T20:24:45;18.17;;;11.45;;
33690;SDS011;20026;50.058;18.428;2023-11-21T20:27:12;18.85;;;10.75;;
33690;SDS011;20026;50.058;18.428;2023-11-21T20:29:42;16.23;;;10.40;;
33690;SDS011;20026;50.058;18.428;2023-11-21T20:32:09;18.20;;;10.43;;
33690;SDS011;20026;50.058;18.428;2023-11-21T20:34:36;18.70;;;11.13;;
33690;SDS011;20026;50.058;18.428;2023-11-21T20:37:03;14.60;;;8.65;;
33690;SDS011;20026;50.058;18.428;2023-11-21T20:39:30;13.88;;;9.30;;
33690;SDS011;20026;50.058;18.428;2023-11-21T20:41:58;12.40;;;7.85;;
33690;SDS011;20026;50.058;18.428;2023-11-21T20:44:25;13.10;;;8.80;;
33690;SDS011;20026;50.058;18.428;2023-11-21T20:46:51;15.10;;;10.60;;
33690;SDS011;20026;50.058;18.428;2023-11-21T20:49:18;17.98;;;10.60;;
33690;SDS011;20026;50.058;18.428;2023-11-21T20:51:44;15.18;;;10.35;;
33690;SDS011;20026;50.058;18.428;2023-11-21T20:54:11;20.42;;;11.65;;
33690;SDS011;20026;50.058;18.428;2023-11-21T20:56:37;17.23;;;10.40;;
33690;SDS011;20026;50.058;18.428;2023-11-21T20:59:03;21.95;;;11.82;;
33690;SDS011;20026;50.058;18.428;2023-11-21T21:01:33;25.02;;;13.52;;
33690;SDS011;20026;50.058;18.428;2023-11-21T21:03:59;22.52;;;12.27;;
33690;SDS011;20026;50.058;18.428;2023-11-21T21:06:29;34.78;;;16.90;;
33690;SDS011;20026;50.058;18.428;2023-11-21T21:08:55;25.02;;;12.43;;
33690;SDS011;20026;50.058;18.428;2023-11-21T21:11:23;19.60;;;12.68;;
33690;SDS011;20026;50.058;18.428;2023-11-21T21:13:50;16.00;;;9.23;;
33690;SDS011;20026;50.058;18.428;2023-11-21T21:16:21;26.50;;;14.15;;
33690;SDS011;20026;50.058;18.428;2023-11-21T21:18:52;17.60;;;11.70;;
33690;SDS011;20026;50.058;18.428;2023-11-21T21:21:19;31.60;;;15.32;;
33690;SDS011;20026;50.058;18.428;2023-11-21T21:23:45;23.75;;;13.32;;
33690;SDS011;20026;50.058;18.428;2023-11-21T21:26:11;28.63;;;16.25;;
33690;SDS011;20026;50.058;18.428;2023-11-21T21:28:37;29.50;;;14.52;;
33690;SDS011;20026;50.058;18.428;2023-11-21T21:31:03;25.88;;;13.45;;
33690;SDS011;20026;50.058;18.428;2023-11-21T21:33:32;23.70;;;13.43;;
33690;SDS011;20026;50.058;18.428;2023-11-21T21:35:58;29.17;;;14.73;;
33690;SDS011;20026;50.058;18.428;2023-11-21T21:38:24;24.42;;;14.02;;
33690;SDS011;20026;50.058;18.428;2023-11-21T21:40:55;24.00;;;13.55;;
33690;SDS011;20026;50.058;18.428;2023-11-21T21:43:21;28.30;;;13.93;;
33690;SDS011;20026;50.058;18.428;2023-11-21T21:45:47;28.98;;;14.60;;
33690;SDS011;20026;50.058;18.428;2023-11-21T21:48:13;30.27;;;16.73;;
33690;SDS011;20026;50.058;18.428;2023-11-21T21:50:39;31.92;;;17.42;;
33690;SDS011;20026;50.058;18.428;2023-11-21T21:53:05;46.97;;;24.45;;
33690;SDS011;20026;50.058;18.428;2023-11-21T21:55:35;31.67;;;17.92;;
33690;SDS011;20026;50.058;18.428;2023-11-21T21:58:02;41.95;;;20.20;;
33690;SDS011;20026;50.058;18.428;2023-11-21T22:00:29;37.70;;;17.83;;
33690;SDS011;20026;50.058;18.428;2023-11-21T22:02:55;36.15;;;17.50;;
33690;SDS011;20026;50.058;18.428;2023-11-21T22:05:21;29.95;;;14.90;;
33690;SDS011;20026;50.058;18.428;2023-11-21T22:07:48;37.78;;;18.80;;
33690;SDS011;20026;50.058;18.428;2023-11-21T22:10:14;34.55;;;17.38;;
33690;SDS011;20026;50.058;18.428;2023-11-21T22:12:40;36.45;;;18.38;;
33690;SDS011;20026;50.058;18.428;2023-11-21T22:15:06;32.63;;;19.13;;